sensor_id;sensor_type;location;lat;lon;timestamp;P1;durP1;ratioP1;P2;durP2;ratioP2
21661;SDS011;10992;48.170;8.596;2024-03-06T00:01:57;6.68;;;3.65;;
21661;SDS011;10992;48.170;8.596;2024-03-06T00:04:24;6.07;;;4.30;;
21661;SDS011;10992;48.170;8.596;2024-03-06T00:06:51;4.93;;;4.05;;
21661;SDS011;10992;48.170;8.596;2024-03-06T00:09:19;7.00;;;4.43;;
21661;SDS011;10992;48.170;8.596;2024-03-06T00:11:46;5.72;;;4.20;;
21661;SDS011;10992;48.170;8.596;2024-03-06T00:14:13;7.22;;;4.07;;
21661;SDS011;10992;48.170;8.596;2024-03-06T00:16:40;5.78;;;3.85;;
21661;SDS011;10992;48.170;8.596;2024-03-06T00:19:08;6.05;;;3.95;;
21661;SDS011;10992;48.170;8.596;2024-03-06T00:21:35;7.13;;;3.92;;
21661;SDS011;10992;48.170;8.596;2024-03-06T00:24:02;6.75;;;3.67;;
21661;SDS011;10992;48.170;8.596;2024-03-06T00:26:30;3.30;;;2.92;;
21661;SDS011;10992;48.170;8.596;2024-03-06T00:28:57;4.50;;;3.00;;
21661;SDS011;10992;48.170;8.596;2024-03-06T00:31:24;3.72;;;2.70;;
21661;SDS011;10992;48.170;8.596;2024-03-06T00:33:54;3.33;;;2.80;;
21661;SDS011;10992;48.170;8.596;2024-03-06T00:36:20;5.80;;;3.22;;
21661;SDS011;10992;48.170;8.596;2024-03-06T00:38:49;3.95;;;2.97;;
21661;SDS011;10992;48.170;8.596;2024-03-06T00:41:16;3.00;;;2.38;;
21661;SDS011;10992;48.170;8.596;2024-03-06T00:43:43;5.38;;;2.63;;
21661;SDS011;10992;48.170;8.596;2024-03-06T00:46:10;4.38;;;2.72;;
21661;SDS011;10992;48.170;8.596;2024-03-06T00:48:37;5.40;;;2.45;;
21661;SDS011;10992;48.170;8.596;2024-03-06T00:51:07;4.82;;;2.70;;
21661;SDS011;10992;48.170;8.596;2024-03-06T00:53:34;3.72;;;2.53;;
21661;SDS011;10992;48.170;8.596;2024-03-06T00:56:02;3.38;;;2.40;;
21661;SDS011;10992;48.170;8.596;2024-03-06T00:58:29;3.30;;;2.60;;
21661;SDS011;10992;48.170;8.596;2024-03-06T01:00:56;3.38;;;2.30;;
21661;SDS011;10992;48.170;8.596;2024-03-06T01:03:24;3.45;;;2.58;;
21661;SDS011;10992;48.170;8.596;2024-03-06T01:05:51;3.50;;;2.40;;
21661;SDS011;10992;48.170;8.596;2024-03-06T01:08:21;4.55;;;2.38;;
21661;SDS011;10992;48.170;8.596;2024-03-06T01:10:51;3.65;;;2.45;;
21661;SDS011;10992;48.170;8.596;2024-03-06T01:13:18;3.22;;;2.65;;
21661;SDS011;10992;48.170;8.596;2024-03-06T01:15:46;4.75;;;2.55;;
21661;SDS011;10992;48.170;8.596;2024-03-06T01:18:12;5.43;;;2.78;;
21661;SDS011;10992;48.170;8.596;2024-03-06T01:20:39;3.85;;;2.53;;
21661;SDS011;10992;48.170;8.596;2024-03-06T01:23:06;4.13;;;2.65;;
21661;SDS011;10992;48.170;8.596;2024-03-06T01:25:33;5.28;;;2.63;;
21661;SDS011;10992;48.170;8.596;2024-03-06T01:28:00;5.55;;;2.63;;
21661;SDS011;10992;48.170;8.596;2024-03-06T01:30:28;2.58;;;2.22;;
21661;SDS011;10992;48.170;8.596;2024-03-06T01:32:55;3.58;;;2.72;;
21661;SDS011;10992;48.170;8.596;2024-03-06T01:35:21;3.25;;;2.30;;
21661;SDS011;10992;48.170;8.596;2024-03-06T01:37:49;4.05;;;2.45;;
21661;SDS011;10992;48.170;8.596;2024-03-06T01:40:17;4.13;;;2.83;;
21661;SDS011;10992;48.170;8.596;2024-03-06T01:42:46;3.92;;;3.22;;
21661;SDS011;10992;48.170;8.596;2024-03-06T01:45:14;3.22;;;2.88;;
21661;SDS011;10992;48.170;8.596;2024-03-06T01:47:41;3.78;;;2.85;;
21661;SDS011;10992;48.170;8.596;2024-03-06T01:50:08;3.22;;;2.67;;
21661;SDS011;10992;48.170;8.596;2024-03-06T01:52:36;5.55;;;3.17;;
21661;SDS011;10992;48.170;8.596;2024-03-06T01:55:06;4.15;;;3.75;;
21661;SDS011;10992;48.170;8.596;2024-03-06T01:57:35;4.85;;;3.80;;
21661;SDS011;10992;48.170;8.596;2024-03-06T02:00:05;7.35;;;3.90;;
21661;SDS011;10992;48.170;8.596;2024-03-06T02:02:34;5.32;;;3.70;;
21661;SDS011;10992;48.170;8.596;2024-03-06T02:05:01;6.25;;;3.80;;
21661;SDS011;10992;48.170;8.596;2024-03-06T02:07:28;7.07;;;4.78;;
21661;SDS011;10992;48.170;8.596;2024-03-06T02:09:58;6.68;;;4.55;;
21661;SDS011;10992;48.170;8.596;2024-03-06T02:12:25;8.20;;;5.00;;
21661;SDS011;10992;48.170;8.596;2024-03-06T02:14:54;6.47;;;5.20;;
21661;SDS011;10992;48.170;8.596;2024-03-06T02:17:20;10.65;;;5.20;;
21661;SDS011;10992;48.170;8.596;2024-03-06T02:19:48;8.32;;;5.80;;
21661;SDS011;10992;48.170;8.596;2024-03-06T02:22:15;6.97;;;5.55;;
21661;SDS011;10992;48.170;8.596;2024-03-06T02:24:47;10.23;;;5.97;;
21661;SDS011;10992;48.170;8.596;2024-03-06T02:27:14;6.63;;;5.10;;
21661;SDS011;10992;48.170;8.596;2024-03-06T02:29:42;7.10;;;5.13;;
21661;SDS011;10992;48.170;8.596;2024-03-06T02:32:11;8.48;;;5.15;;
21661;SDS011;10992;48.170;8.596;2024-03-06T02:34:40;7.45;;;5.60;;
21661;SDS011;10992;48.170;8.596;2024-03-06T02:37:07;10.57;;;6.10;;
21661;SDS011;10992;48.170;8.596;2024-03-06T02:39:34;7.80;;;5.65;;
21661;SDS011;10992;48.170;8.596;2024-03-06T02:42:01;8.15;;;5.72;;
21661;SDS011;10992;48.170;8.596;2024-03-06T02:44:28;8.27;;;6.05;;
21661;SDS011;10992;48.170;8.596;2024-03-06T02:46:56;7.53;;;6.18;;
21661;SDS011;10992;48.170;8.596;2024-03-06T02:49:23;7.85;;;5.85;;
21661;SDS011;10992;48.170;8.596;2024-03-06T02:51:50;10.48;;;5.78;;
21661;SDS011;10992;48.170;8.596;2024-03-06T02:54:17;8.90;;;6.32;;
21661;SDS011;10992;48.170;8.596;2024-03-06T02:56:45;8.68;;;6.40;;
21661;SDS011;10992;48.170;8.596;2024-03-06T02:59:12;9.20;;;5.97;;
21661;SDS011;10992;48.170;8.596;2024-03-06T03:01:40;10.63;;;6.82;;
21661;SDS011;10992;48.170;8.596;2024-03-06T03:04:07;9.50;;;6.47;;
21661;SDS011;10992;48.170;8.596;2024-03-06T03:06:35;11.13;;;6.55;;
21661;SDS011;10992;48.170;8.596;2024-03-06T03:09:02;7.97;;;6.05;;
21661;SDS011;10992;48.170;8.596;2024-03-06T03:11:32;9.13;;;6.03;;
21661;SDS011;10992;48.170;8.596;2024-03-06T03:13:58;8.77;;;6.10;;
21661;SDS011;10992;48.170;8.596;2024-03-06T03:16:26;8.10;;;5.68;;
21661;SDS011;10992;48.170;8.596;2024-03-06T03:18:52;7.20;;;5.68;;
21661;SDS011;10992;48.170;8.596;2024-03-06T03:21:20;11.57;;;6.82;;
21661;SDS011;10992;48.170;8.596;2024-03-06T03:23:48;7.82;;;6.07;;
21661;SDS011;10992;48.170;8.596;2024-03-06T03:26:16;9.98;;;6.03;;
21661;SDS011;10992;48.170;8.596;2024-03-06T03:28:43;10.52;;;5.93;;
21661;SDS011;10992;48.170;8.596;2024-03-06T03:31:09;8.75;;;6.68;;
21661;SDS011;10992;48.170;8.596;2024-03-06T03:33:40;7.82;;;5.88;;
21661;SDS011;10992;48.170;8.596;2024-03-06T03:36:07;8.82;;;6.13;;
21661;SDS011;10992;48.170;8.596;2024-03-06T03:38:36;7.78;;;6.25;;
21661;SDS011;10992;48.170;8.596;2024-03-06T03:41:11;9.38;;;6.38;;
21661;SDS011;10992;48.170;8.596;2024-03-06T03:43:40;10.07;;;6.00;;
21661;SDS011;10992;48.170;8.596;2024-03-06T03:46:08;8.32;;;6.22;;
21661;SDS011;10992;48.170;8.596;2024-03-06T03:48:35;9.30;;;6.63;;
21661;SDS011;10992;48.170;8.596;2024-03-06T03:51:04;12.35;;;6.88;;
21661;SDS011;10992;48.170;8.596;2024-03-06T03:53:32;8.65;;;6.50;;
21661;SDS011;10992;48.170;8.596;2024-03-06T03:56:02;9.60;;;6.80;;
21661;SDS011;10992;48.170;8.596;2024-03-06T03:58:29;10.75;;;6.65;;
21661;SDS011;10992;48.170;8.596;2024-03-06T04:00:56;10.55;;;6.95;;
21661;SDS011;10992;48.170;8.596;2024-03-06T04:03:23;9.93;;;6.88;;
21661;SDS011;10992;48.170;8.596;2024-03-06T04:05:51;12.98;;;6.85;;
21661;SDS011;10992;48.170;8.596;2024-03-06T04:08:18;9.85;;;7.05;;
21661;SDS011;10992;48.170;8.596;2024-03-06T04:10:45;10.85;;;7.40;;
21661;SDS011;10992;48.170;8.596;2024-03-06T04:13:12;8.75;;;6.80;;
21661;SDS011;10992;48.170;8.596;2024-03-06T04:15:41;11.25;;;7.28;;
21661;SDS011;10992;48.170;8.596;2024-03-06T04:18:08;12.48;;;7.20;;
21661;SDS011;10992;48.170;8.596;2024-03-06T04:20:34;9.18;;;6.25;;
21661;SDS011;10992;48.170;8.596;2024-03-06T04:23:01;8.75;;;6.95;;
21661;SDS011;10992;48.170;8.596;2024-03-06T04:25:29;9.63;;;6.72;;
21661;SDS011;10992;48.170;8.596;2024-03-06T04:27:56;8.98;;;7.15;;
21661;SDS011;10992;48.170;8.596;2024-03-06T04:30:22;9.32;;;6.63;;
21661;SDS011;10992;48.170;8.596;2024-03-06T04:32:49;8.82;;;7.05;;
21661;SDS011;10992;48.170;8.596;2024-03-06T04:35:16;8.75;;;6.85;;
21661;SDS011;10992;48.170;8.596;2024-03-06T04:37:43;8.85;;;6.97;;
21661;SDS011;10992;48.170;8.596;2024-03-06T04:40:11;12.18;;;7.78;;
21661;SDS011;10992;48.170;8.596;2024-03-06T04:42:38;10.10;;;6.93;;
21661;SDS011;10992;48.170;8.596;2024-03-06T04:45:25;12.60;;;7.35;;
21661;SDS011;10992;48.170;8.596;2024-03-06T04:47:52;10.40;;;6.68;;
21661;SDS011;10992;48.170;8.596;2024-03-06T04:50:19;9.80;;;7.65;;
21661;SDS011;10992;48.170;8.596;2024-03-06T04:52:46;9.88;;;6.78;;
21661;SDS011;10992;48.170;8.596;2024-03-06T04:55:13;13.27;;;7.18;;
21661;SDS011;10992;48.170;8.596;2024-03-06T04:57:44;10.63;;;7.07;;
21661;SDS011;10992;48.170;8.596;2024-03-06T05:00:12;12.40;;;7.18;;
21661;SDS011;10992;48.170;8.596;2024-03-06T05:02:39;7.47;;;6.65;;
21661;SDS011;10992;48.170;8.596;2024-03-06T05:05:25;10.95;;;7.43;;
21661;SDS011;10992;48.170;8.596;2024-03-06T05:08:10;14.45;;;7.40;;
21661;SDS011;10992;48.170;8.596;2024-03-06T05:10:55;9.43;;;7.43;;
21661;SDS011;10992;48.170;8.596;2024-03-06T05:13:39;8.63;;;6.93;;
21661;SDS011;10992;48.170;8.596;2024-03-06T05:16:23;10.73;;;6.80;;
21661;SDS011;10992;48.170;8.596;2024-03-06T05:19:08;9.02;;;6.85;;
21661;SDS011;10992;48.170;8.596;2024-03-06T05:21:54;9.85;;;6.80;;
21661;SDS011;10992;48.170;8.596;2024-03-06T05:24:38;10.30;;;7.50;;
21661;SDS011;10992;48.170;8.596;2024-03-06T05:27:24;8.18;;;6.88;;
21661;SDS011;10992;48.170;8.596;2024-03-06T05:30:09;10.18;;;7.63;;
21661;SDS011;10992;48.170;8.596;2024-03-06T05:32:54;8.30;;;6.78;;
21661;SDS011;10992;48.170;8.596;2024-03-06T05:35:38;9.52;;;7.65;;
21661;SDS011;10992;48.170;8.596;2024-03-06T05:38:22;10.98;;;6.95;;
21661;SDS011;10992;48.170;8.596;2024-03-06T05:41:06;10.80;;;7.30;;
21661;SDS011;10992;48.170;8.596;2024-03-06T05:43:52;11.55;;;7.68;;
21661;SDS011;10992;48.170;8.596;2024-03-06T05:46:36;10.02;;;7.53;;
21661;SDS011;10992;48.170;8.596;2024-03-06T05:49:21;12.63;;;7.40;;
21661;SDS011;10992;48.170;8.596;2024-03-06T05:52:05;10.73;;;7.07;;
21661;SDS011;10992;48.170;8.596;2024-03-06T05:54:50;10.20;;;8.05;;
21661;SDS011;10992;48.170;8.596;2024-03-06T05:57:34;10.65;;;7.55;;
21661;SDS011;10992;48.170;8.596;2024-03-06T06:00:19;10.95;;;7.72;;
21661;SDS011;10992;48.170;8.596;2024-03-06T06:02:48;12.45;;;7.88;;
21661;SDS011;10992;48.170;8.596;2024-03-06T06:05:15;11.60;;;7.93;;
21661;SDS011;10992;48.170;8.596;2024-03-06T06:07:50;11.82;;;8.15;;
21661;SDS011;10992;48.170;8.596;2024-03-06T06:10:17;13.85;;;7.70;;
21661;SDS011;10992;48.170;8.596;2024-03-06T06:12:47;13.88;;;7.25;;
21661;SDS011;10992;48.170;8.596;2024-03-06T06:15:15;9.93;;;6.78;;
21661;SDS011;10992;48.170;8.596;2024-03-06T06:17:42;11.02;;;6.80;;
21661;SDS011;10992;48.170;8.596;2024-03-06T06:20:11;11.70;;;7.43;;
21661;SDS011;10992;48.170;8.596;2024-03-06T06:22:42;9.50;;;6.72;;
21661;SDS011;10992;48.170;8.596;2024-03-06T06:25:09;10.82;;;7.55;;
21661;SDS011;10992;48.170;8.596;2024-03-06T06:27:37;9.73;;;7.45;;
21661;SDS011;10992;48.170;8.596;2024-03-06T06:30:05;8.40;;;6.85;;
21661;SDS011;10992;48.170;8.596;2024-03-06T06:32:33;9.05;;;6.90;;
21661;SDS011;10992;48.170;8.596;2024-03-06T06:35:01;13.27;;;8.35;;
21661;SDS011;10992;48.170;8.596;2024-03-06T06:37:28;11.18;;;7.65;;
21661;SDS011;10992;48.170;8.596;2024-03-06T06:39:55;9.63;;;7.30;;
21661;SDS011;10992;48.170;8.596;2024-03-06T06:42:22;11.88;;;8.52;;
21661;SDS011;10992;48.170;8.596;2024-03-06T06:44:50;15.65;;;7.60;;
21661;SDS011;10992;48.170;8.596;2024-03-06T06:47:17;12.20;;;8.52;;
21661;SDS011;10992;48.170;8.596;2024-03-06T06:49:44;14.30;;;9.10;;
21661;SDS011;10992;48.170;8.596;2024-03-06T06:52:11;10.52;;;8.25;;
21661;SDS011;10992;48.170;8.596;2024-03-06T06:54:38;11.85;;;8.45;;
21661;SDS011;10992;48.170;8.596;2024-03-06T06:57:05;13.43;;;8.73;;
21661;SDS011;10992;48.170;8.596;2024-03-06T06:59:32;13.10;;;8.70;;
21661;SDS011;10992;48.170;8.596;2024-03-06T07:01:59;13.30;;;8.77;;
21661;SDS011;10992;48.170;8.596;2024-03-06T07:04:26;11.88;;;8.40;;
21661;SDS011;10992;48.170;8.596;2024-03-06T07:06:52;9.93;;;7.90;;
21661;SDS011;10992;48.170;8.596;2024-03-06T07:09:19;11.70;;;8.13;;
21661;SDS011;10992;48.170;8.596;2024-03-06T07:11:46;11.93;;;8.70;;
21661;SDS011;10992;48.170;8.596;2024-03-06T07:14:13;10.77;;;8.43;;
21661;SDS011;10992;48.170;8.596;2024-03-06T07:16:43;11.40;;;9.00;;
21661;SDS011;10992;48.170;8.596;2024-03-06T07:19:11;11.85;;;8.57;;
21661;SDS011;10992;48.170;8.596;2024-03-06T07:21:38;14.30;;;9.35;;
21661;SDS011;10992;48.170;8.596;2024-03-06T07:24:05;13.50;;;8.57;;
21661;SDS011;10992;48.170;8.596;2024-03-06T07:26:33;14.25;;;8.95;;
21661;SDS011;10992;48.170;8.596;2024-03-06T07:29:01;11.70;;;8.80;;
21661;SDS011;10992;48.170;8.596;2024-03-06T07:31:29;11.05;;;8.98;;
21661;SDS011;10992;48.170;8.596;2024-03-06T07:33:55;13.73;;;8.38;;
21661;SDS011;10992;48.170;8.596;2024-03-06T07:36:22;9.25;;;7.72;;
21661;SDS011;10992;48.170;8.596;2024-03-06T07:38:49;11.13;;;8.23;;
21661;SDS011;10992;48.170;8.596;2024-03-06T07:41:16;9.32;;;7.80;;
21661;SDS011;10992;48.170;8.596;2024-03-06T07:43:43;9.90;;;8.20;;
21661;SDS011;10992;48.170;8.596;2024-03-06T07:46:10;13.48;;;8.73;;
21661;SDS011;10992;48.170;8.596;2024-03-06T07:48:37;10.80;;;8.38;;
21661;SDS011;10992;48.170;8.596;2024-03-06T07:51:05;11.45;;;8.63;;
21661;SDS011;10992;48.170;8.596;2024-03-06T07:53:33;10.95;;;7.47;;
21661;SDS011;10992;48.170;8.596;2024-03-06T07:56:00;11.55;;;8.10;;
21661;SDS011;10992;48.170;8.596;2024-03-06T07:58:27;9.85;;;7.85;;
21661;SDS011;10992;48.170;8.596;2024-03-06T08:00:54;11.35;;;8.05;;
21661;SDS011;10992;48.170;8.596;2024-03-06T08:03:23;10.00;;;7.80;;
21661;SDS011;10992;48.170;8.596;2024-03-06T08:05:51;9.80;;;7.97;;
21661;SDS011;10992;48.170;8.596;2024-03-06T08:08:19;10.45;;;7.82;;
21661;SDS011;10992;48.170;8.596;2024-03-06T08:10:47;13.90;;;8.23;;
21661;SDS011;10992;48.170;8.596;2024-03-06T08:13:15;13.80;;;9.25;;
21661;SDS011;10992;48.170;8.596;2024-03-06T08:15:42;14.18;;;9.07;;
21661;SDS011;10992;48.170;8.596;2024-03-06T08:18:11;15.98;;;10.75;;
21661;SDS011;10992;48.170;8.596;2024-03-06T08:20:40;14.75;;;10.82;;
21661;SDS011;10992;48.170;8.596;2024-03-06T08:23:08;12.30;;;9.10;;
21661;SDS011;10992;48.170;8.596;2024-03-06T08:25:36;12.55;;;9.65;;
21661;SDS011;10992;48.170;8.596;2024-03-06T08:28:04;10.15;;;7.95;;
21661;SDS011;10992;48.170;8.596;2024-03-06T08:30:32;8.77;;;7.05;;
21661;SDS011;10992;48.170;8.596;2024-03-06T08:32:59;10.98;;;8.35;;
21661;SDS011;10992;48.170;8.596;2024-03-06T08:35:27;11.68;;;7.70;;
21661;SDS011;10992;48.170;8.596;2024-03-06T08:37:54;11.50;;;7.28;;
21661;SDS011;10992;48.170;8.596;2024-03-06T08:40:21;10.75;;;7.25;;
21661;SDS011;10992;48.170;8.596;2024-03-06T08:42:49;9.52;;;6.80;;
21661;SDS011;10992;48.170;8.596;2024-03-06T08:45:16;8.95;;;7.10;;
21661;SDS011;10992;48.170;8.596;2024-03-06T08:47:44;7.10;;;6.13;;
21661;SDS011;10992;48.170;8.596;2024-03-06T08:50:12;8.90;;;6.95;;
21661;SDS011;10992;48.170;8.596;2024-03-06T08:52:40;11.38;;;6.32;;
21661;SDS011;10992;48.170;8.596;2024-03-06T08:55:10;12.13;;;6.60;;
21661;SDS011;10992;48.170;8.596;2024-03-06T08:58:02;10.88;;;6.07;;
21661;SDS011;10992;48.170;8.596;2024-03-06T09:00:29;8.93;;;6.72;;
21661;SDS011;10992;48.170;8.596;2024-03-06T09:02:56;7.13;;;5.93;;
21661;SDS011;10992;48.170;8.596;2024-03-06T09:05:23;8.70;;;6.47;;
21661;SDS011;10992;48.170;8.596;2024-03-06T09:07:50;7.88;;;5.85;;
21661;SDS011;10992;48.170;8.596;2024-03-06T09:10:17;9.02;;;6.25;;
21661;SDS011;10992;48.170;8.596;2024-03-06T09:12:45;8.57;;;5.93;;
21661;SDS011;10992;48.170;8.596;2024-03-06T09:15:13;7.90;;;5.78;;
21661;SDS011;10992;48.170;8.596;2024-03-06T09:17:41;7.30;;;5.30;;
21661;SDS011;10992;48.170;8.596;2024-03-06T09:20:09;7.60;;;5.88;;
21661;SDS011;10992;48.170;8.596;2024-03-06T09:22:38;9.65;;;6.70;;
21661;SDS011;10992;48.170;8.596;2024-03-06T09:25:06;8.95;;;6.47;;
21661;SDS011;10992;48.170;8.596;2024-03-06T09:27:34;8.75;;;5.82;;
21661;SDS011;10992;48.170;8.596;2024-03-06T09:30:01;8.00;;;6.28;;
21661;SDS011;10992;48.170;8.596;2024-03-06T09:32:29;7.38;;;5.70;;
21661;SDS011;10992;48.170;8.596;2024-03-06T09:34:58;6.30;;;5.43;;
21661;SDS011;10992;48.170;8.596;2024-03-06T09:37:25;7.13;;;5.28;;
21661;SDS011;10992;48.170;8.596;2024-03-06T09:39:52;6.60;;;4.72;;
21661;SDS011;10992;48.170;8.596;2024-03-06T09:42:19;6.47;;;5.05;;
21661;SDS011;10992;48.170;8.596;2024-03-06T09:44:46;5.35;;;4.57;;
21661;SDS011;10992;48.170;8.596;2024-03-06T09:47:14;5.30;;;4.43;;
21661;SDS011;10992;48.170;8.596;2024-03-06T09:49:50;5.53;;;4.60;;
21661;SDS011;10992;48.170;8.596;2024-03-06T09:52:21;5.03;;;4.32;;
21661;SDS011;10992;48.170;8.596;2024-03-06T09:54:52;4.88;;;4.03;;
21661;SDS011;10992;48.170;8.596;2024-03-06T09:57:21;4.25;;;3.75;;
21661;SDS011;10992;48.170;8.596;2024-03-06T09:59:47;5.60;;;4.10;;
21661;SDS011;10992;48.170;8.596;2024-03-06T10:02:18;9.50;;;5.70;;
21661;SDS011;10992;48.170;8.596;2024-03-06T10:04:57;7.03;;;4.95;;
21661;SDS011;10992;48.170;8.596;2024-03-06T10:07:23;9.30;;;6.07;;
21661;SDS011;10992;48.170;8.596;2024-03-06T10:09:50;5.50;;;4.35;;
21661;SDS011;10992;48.170;8.596;2024-03-06T10:12:17;7.65;;;4.78;;
21661;SDS011;10992;48.170;8.596;2024-03-06T10:14:50;5.03;;;4.07;;
21661;SDS011;10992;48.170;8.596;2024-03-06T10:17:19;5.25;;;4.40;;
21661;SDS011;10992;48.170;8.596;2024-03-06T10:19:49;5.75;;;4.85;;
21661;SDS011;10992;48.170;8.596;2024-03-06T10:22:19;5.47;;;4.10;;
21661;SDS011;10992;48.170;8.596;2024-03-06T10:24:47;6.88;;;4.43;;
21661;SDS011;10992;48.170;8.596;2024-03-06T10:27:14;7.10;;;4.38;;
21661;SDS011;10992;48.170;8.596;2024-03-06T10:29:45;4.53;;;3.97;;
21661;SDS011;10992;48.170;8.596;2024-03-06T10:32:16;6.28;;;5.20;;
21661;SDS011;10992;48.170;8.596;2024-03-06T10:34:45;4.95;;;4.50;;
21661;SDS011;10992;48.170;8.596;2024-03-06T10:37:12;5.53;;;4.80;;
21661;SDS011;10992;48.170;8.596;2024-03-06T10:39:42;4.93;;;4.05;;
21661;SDS011;10992;48.170;8.596;2024-03-06T10:42:12;6.32;;;4.38;;
21661;SDS011;10992;48.170;8.596;2024-03-06T10:44:46;4.45;;;3.53;;
21661;SDS011;10992;48.170;8.596;2024-03-06T10:47:20;4.70;;;3.72;;
21661;SDS011;10992;48.170;8.596;2024-03-06T10:49:47;4.72;;;4.03;;
21661;SDS011;10992;48.170;8.596;2024-03-06T10:52:15;4.32;;;3.88;;
21661;SDS011;10992;48.170;8.596;2024-03-06T10:54:46;5.05;;;3.28;;
21661;SDS011;10992;48.170;8.596;2024-03-06T10:57:14;4.55;;;3.30;;
21661;SDS011;10992;48.170;8.596;2024-03-06T10:59:42;3.78;;;3.33;;
21661;SDS011;10992;48.170;8.596;2024-03-06T11:02:10;3.78;;;3.38;;
21661;SDS011;10992;48.170;8.596;2024-03-06T11:04:39;5.50;;;3.63;;
21661;SDS011;10992;48.170;8.596;2024-03-06T11:07:07;4.40;;;3.50;;
21661;SDS011;10992;48.170;8.596;2024-03-06T11:09:39;7.22;;;3.97;;
21661;SDS011;10992;48.170;8.596;2024-03-06T11:12:07;4.25;;;3.67;;
21661;SDS011;10992;48.170;8.596;2024-03-06T11:14:37;6.72;;;4.22;;
21661;SDS011;10992;48.170;8.596;2024-03-06T11:17:09;4.25;;;3.85;;
21661;SDS011;10992;48.170;8.596;2024-03-06T11:23:01;4.45;;;3.78;;
21661;SDS011;10992;48.170;8.596;2024-03-06T11:28:17;7.32;;;4.47;;
21661;SDS011;10992;48.170;8.596;2024-03-06T11:30:55;4.20;;;3.60;;
21661;SDS011;10992;48.170;8.596;2024-03-06T11:33:45;4.07;;;3.63;;
21661;SDS011;10992;48.170;8.596;2024-03-06T11:36:15;4.28;;;3.88;;
21661;SDS011;10992;48.170;8.596;2024-03-06T11:38:58;4.03;;;3.35;;
21661;SDS011;10992;48.170;8.596;2024-03-06T11:44:12;5.05;;;3.63;;
21661;SDS011;10992;48.170;8.596;2024-03-06T11:46:48;5.60;;;3.78;;
21661;SDS011;10992;48.170;8.596;2024-03-06T11:49:20;4.13;;;3.65;;
21661;SDS011;10992;48.170;8.596;2024-03-06T11:51:52;4.05;;;3.22;;
21661;SDS011;10992;48.170;8.596;2024-03-06T11:54:19;6.30;;;3.85;;
21661;SDS011;10992;48.170;8.596;2024-03-06T11:56:51;4.65;;;4.07;;
21661;SDS011;10992;48.170;8.596;2024-03-06T11:59:29;6.00;;;4.05;;
21661;SDS011;10992;48.170;8.596;2024-03-06T12:01:59;9.75;;;5.85;;
21661;SDS011;10992;48.170;8.596;2024-03-06T12:04:34;21.73;;;11.80;;
21661;SDS011;10992;48.170;8.596;2024-03-06T12:07:05;5.38;;;3.75;;
21661;SDS011;10992;48.170;8.596;2024-03-06T12:09:33;3.63;;;3.28;;
21661;SDS011;10992;48.170;8.596;2024-03-06T12:12:06;6.22;;;3.83;;
21661;SDS011;10992;48.170;8.596;2024-03-06T12:14:34;5.28;;;3.50;;
21661;SDS011;10992;48.170;8.596;2024-03-06T12:17:02;4.22;;;3.15;;
21661;SDS011;10992;48.170;8.596;2024-03-06T12:19:36;8.35;;;4.18;;
21661;SDS011;10992;48.170;8.596;2024-03-06T12:22:03;4.63;;;3.53;;
21661;SDS011;10992;48.170;8.596;2024-03-06T12:24:34;5.75;;;4.40;;
21661;SDS011;10992;48.170;8.596;2024-03-06T12:27:05;7.45;;;5.85;;
21661;SDS011;10992;48.170;8.596;2024-03-06T12:29:34;7.22;;;4.80;;
21661;SDS011;10992;48.170;8.596;2024-03-06T12:32:02;6.10;;;4.93;;
21661;SDS011;10992;48.170;8.596;2024-03-06T12:34:30;8.30;;;5.70;;
21661;SDS011;10992;48.170;8.596;2024-03-06T12:37:10;6.90;;;5.38;;
21661;SDS011;10992;48.170;8.596;2024-03-06T12:39:38;7.85;;;5.60;;
21661;SDS011;10992;48.170;8.596;2024-03-06T12:42:09;8.57;;;5.30;;
21661;SDS011;10992;48.170;8.596;2024-03-06T12:44:37;6.72;;;5.70;;
21661;SDS011;10992;48.170;8.596;2024-03-06T12:47:06;6.88;;;5.40;;
21661;SDS011;10992;48.170;8.596;2024-03-06T12:49:33;7.53;;;5.75;;
21661;SDS011;10992;48.170;8.596;2024-03-06T12:51:59;11.00;;;6.53;;
21661;SDS011;10992;48.170;8.596;2024-03-06T12:54:30;10.63;;;6.18;;
21661;SDS011;10992;48.170;8.596;2024-03-06T12:56:57;8.15;;;6.50;;
21661;SDS011;10992;48.170;8.596;2024-03-06T12:59:24;9.07;;;6.35;;
21661;SDS011;10992;48.170;8.596;2024-03-06T13:01:51;11.27;;;6.95;;
21661;SDS011;10992;48.170;8.596;2024-03-06T13:04:18;11.07;;;7.55;;
21661;SDS011;10992;48.170;8.596;2024-03-06T13:06:45;9.63;;;7.75;;
21661;SDS011;10992;48.170;8.596;2024-03-06T13:09:12;11.80;;;7.47;;
21661;SDS011;10992;48.170;8.596;2024-03-06T13:11:39;14.30;;;7.95;;
21661;SDS011;10992;48.170;8.596;2024-03-06T13:14:09;11.35;;;7.35;;
21661;SDS011;10992;48.170;8.596;2024-03-06T13:16:39;8.88;;;6.32;;
21661;SDS011;10992;48.170;8.596;2024-03-06T13:19:06;11.93;;;8.82;;
21661;SDS011;10992;48.170;8.596;2024-03-06T13:21:34;7.95;;;5.88;;
21661;SDS011;10992;48.170;8.596;2024-03-06T13:24:02;12.00;;;8.20;;
21661;SDS011;10992;48.170;8.596;2024-03-06T13:26:29;9.43;;;7.00;;
21661;SDS011;10992;48.170;8.596;2024-03-06T13:28:56;9.50;;;6.80;;
21661;SDS011;10992;48.170;8.596;2024-03-06T13:31:23;17.73;;;14.88;;
21661;SDS011;10992;48.170;8.596;2024-03-06T13:33:50;10.90;;;7.35;;
21661;SDS011;10992;48.170;8.596;2024-03-06T13:36:17;15.85;;;13.40;;
21661;SDS011;10992;48.170;8.596;2024-03-06T13:38:44;12.70;;;8.15;;
21661;SDS011;10992;48.170;8.596;2024-03-06T13:41:11;12.98;;;8.48;;
21661;SDS011;10992;48.170;8.596;2024-03-06T13:43:38;16.08;;;10.23;;
21661;SDS011;10992;48.170;8.596;2024-03-06T13:46:04;11.10;;;7.90;;
21661;SDS011;10992;48.170;8.596;2024-03-06T13:48:31;14.32;;;9.27;;
21661;SDS011;10992;48.170;8.596;2024-03-06T13:50:58;11.82;;;8.52;;
21661;SDS011;10992;48.170;8.596;2024-03-06T13:53:25;9.52;;;7.43;;
21661;SDS011;10992;48.170;8.596;2024-03-06T13:55:52;9.18;;;6.82;;
21661;SDS011;10992;48.170;8.596;2024-03-06T13:58:19;9.00;;;7.00;;
21661;SDS011;10992;48.170;8.596;2024-03-06T14:00:46;8.68;;;6.85;;
21661;SDS011;10992;48.170;8.596;2024-03-06T14:03:13;10.82;;;6.60;;
21661;SDS011;10992;48.170;8.596;2024-03-06T14:05:40;7.68;;;6.32;;
21661;SDS011;10992;48.170;8.596;2024-03-06T14:08:07;9.35;;;6.85;;
21661;SDS011;10992;48.170;8.596;2024-03-06T14:10:38;10.57;;;7.13;;
21661;SDS011;10992;48.170;8.596;2024-03-06T14:13:07;10.27;;;9.13;;
21661;SDS011;10992;48.170;8.596;2024-03-06T14:15:35;7.90;;;5.88;;
21661;SDS011;10992;48.170;8.596;2024-03-06T14:18:04;9.07;;;6.10;;
21661;SDS011;10992;48.170;8.596;2024-03-06T14:20:32;10.35;;;6.82;;
21661;SDS011;10992;48.170;8.596;2024-03-06T14:22:59;8.65;;;6.28;;
21661;SDS011;10992;48.170;8.596;2024-03-06T14:25:26;10.75;;;7.05;;
21661;SDS011;10992;48.170;8.596;2024-03-06T14:27:53;11.90;;;9.52;;
21661;SDS011;10992;48.170;8.596;2024-03-06T14:30:20;9.20;;;6.40;;
21661;SDS011;10992;48.170;8.596;2024-03-06T14:32:47;10.13;;;6.32;;
21661;SDS011;10992;48.170;8.596;2024-03-06T14:35:14;8.70;;;6.47;;
21661;SDS011;10992;48.170;8.596;2024-03-06T14:37:41;8.85;;;6.47;;
21661;SDS011;10992;48.170;8.596;2024-03-06T14:40:08;6.88;;;5.55;;
21661;SDS011;10992;48.170;8.596;2024-03-06T14:42:36;7.65;;;6.07;;
21661;SDS011;10992;48.170;8.596;2024-03-06T14:45:03;8.40;;;5.43;;
21661;SDS011;10992;48.170;8.596;2024-03-06T14:47:32;7.07;;;5.50;;
21661;SDS011;10992;48.170;8.596;2024-03-06T14:49:59;6.05;;;4.45;;
21661;SDS011;10992;48.170;8.596;2024-03-06T14:52:26;6.50;;;4.82;;
21661;SDS011;10992;48.170;8.596;2024-03-06T14:54:53;11.18;;;8.52;;
21661;SDS011;10992;48.170;8.596;2024-03-06T14:57:20;7.93;;;5.68;;
21661;SDS011;10992;48.170;8.596;2024-03-06T14:59:49;6.22;;;4.00;;
21661;SDS011;10992;48.170;8.596;2024-03-06T15:02:17;5.03;;;3.85;;
21661;SDS011;10992;48.170;8.596;2024-03-06T15:04:44;7.10;;;5.10;;